createdAt,value
2023-04-16T00:02:41.758Z,11.20
2023-04-16T00:05:44.491Z,11.50
2023-04-16T00:08:46.863Z,11.00
2023-04-16T00:11:49.541Z,11.23
2023-04-16T00:14:51.869Z,10.80
2023-04-16T00:17:54.519Z,10.17
2023-04-16T00:20:56.837Z,10.43
2023-04-16T00:23:59.538Z,10.35
2023-04-16T00:27:02.092Z,10.20
2023-04-16T00:30:07.911Z,9.77
2023-04-16T00:33:10.332Z,10.70
2023-04-16T00:36:13.025Z,10.13
2023-04-16T00:39:15.655Z,11.05
2023-04-16T00:42:18.384Z,10.88
2023-04-16T00:45:20.685Z,11.12
2023-04-16T00:48:23.835Z,11.07
2023-04-16T00:51:27.098Z,10.02
2023-04-16T00:54:31.906Z,12.15
2023-04-16T00:57:34.192Z,11.50
2023-04-16T01:00:36.806Z,11.05
2023-04-16T01:03:44.288Z,11.10
2023-04-16T01:06:46.993Z,11.60
2023-04-16T01:09:49.610Z,12.00
2023-04-16T01:12:52.251Z,12.23
2023-04-16T01:15:54.650Z,12.70
2023-04-16T01:18:57.570Z,11.40
2023-04-16T01:22:00.284Z,11.98
2023-04-16T01:25:03.110Z,12.75
2023-04-16T01:28:06.471Z,12.15
2023-04-16T01:31:09.130Z,12.40
2023-04-16T01:34:12.949Z,11.40
2023-04-16T01:37:15.787Z,11.95
2023-04-16T01:40:18.931Z,11.77
2023-04-16T01:43:21.548Z,11.40
2023-04-16T01:46:29.072Z,11.65
2023-04-16T01:49:31.815Z,10.87
2023-04-16T01:52:34.143Z,11.35
2023-04-16T01:55:36.801Z,10.68
2023-04-16T01:58:39.821Z,10.82
2023-04-16T02:01:43.369Z,11.57
2023-04-16T02:04:46.600Z,10.87
2023-04-16T02:07:49.056Z,10.45
2023-04-16T02:10:52.482Z,10.50
2023-04-16T02:13:55.070Z,10.82
2023-04-16T02:16:58.174Z,10.38
2023-04-16T02:20:03.325Z,10.50
2023-04-16T02:23:06.270Z,11.75
2023-04-16T02:26:08.615Z,11.23
2023-04-16T02:29:12.335Z,10.50
2023-04-16T02:32:15.464Z,10.10
2023-04-16T02:35:18.874Z,10.27
2023-04-16T02:38:21.182Z,10.18
2023-04-16T02:41:23.888Z,9.15
2023-04-16T02:44:26.247Z,10.02
2023-04-16T02:47:28.962Z,9.50
2023-04-16T02:50:31.436Z,9.23
2023-04-16T02:53:34.325Z,9.73
2023-04-16T02:56:36.765Z,9.40
2023-04-16T02:59:39.356Z,9.80
2023-04-16T03:02:42.652Z,9.50
2023-04-16T03:05:45.640Z,9.60
2023-04-16T03:08:47.972Z,8.88
2023-04-16T03:11:51.095Z,8.85
2023-04-16T03:14:53.485Z,9.43
2023-04-16T03:17:56.313Z,9.15
2023-04-16T03:20:58.765Z,8.77
2023-04-16T03:24:01.845Z,9.40
2023-04-16T03:27:04.390Z,9.25
2023-04-16T03:30:08.545Z,9.00
2023-04-16T03:33:11.642Z,9.10
2023-04-16T03:36:15.889Z,9.07
2023-04-16T03:39:18.453Z,8.20
2023-04-16T03:42:21.593Z,8.82
2023-04-16T03:45:23.969Z,9.27
2023-04-16T03:48:26.734Z,9.05
2023-04-16T03:51:29.358Z,8.33
2023-04-16T03:54:32.448Z,8.50
2023-04-16T03:57:37.825Z,7.45
2023-04-16T04:00:42.934Z,8.70
2023-04-16T04:03:46.124Z,8.32
2023-04-16T04:06:48.839Z,8.40
2023-04-16T04:09:51.597Z,8.90
2023-04-16T04:12:54.121Z,8.07
2023-04-16T04:15:56.895Z,8.20
2023-04-16T04:19:00.378Z,8.32
2023-04-16T04:22:03.680Z,7.67
2023-04-16T04:25:06.625Z,8.27
2023-04-16T04:28:09.247Z,7.40
2023-04-16T04:31:11.786Z,7.93
2023-04-16T04:34:15.664Z,8.18
2023-04-16T04:37:18.057Z,8.80
2023-04-16T04:40:21.055Z,7.75
2023-04-16T04:43:24.022Z,7.65
2023-04-16T04:46:26.670Z,7.53
2023-04-16T04:49:30.506Z,7.50
2023-04-16T04:52:33.180Z,7.60
2023-04-16T04:55:37.499Z,7.22
2023-04-16T04:58:41.185Z,7.32
2023-04-16T05:01:43.606Z,7.47
2023-04-16T05:04:46.291Z,8.27
2023-04-16T05:07:48.617Z,7.13
2023-04-16T05:10:51.203Z,7.72
2023-04-16T05:13:53.604Z,7.70
2023-04-16T05:16:56.597Z,7.78
2023-04-16T05:20:00.359Z,7.35
2023-04-16T05:23:03.285Z,7.80
2023-04-16T05:26:05.601Z,7.50
2023-04-16T05:29:11.435Z,7.18
2023-04-16T05:32:14.022Z,6.80
2023-04-16T05:35:17.614Z,7.95
2023-04-16T05:38:20.248Z,8.00
2023-04-16T05:41:22.960Z,7.78
2023-04-16T05:44:26.052Z,7.28
2023-04-16T05:47:28.712Z,7.75
2023-04-16T05:50:31.184Z,8.43
2023-04-16T05:53:33.818Z,8.10
2023-04-16T05:56:36.201Z,8.23
2023-04-16T05:59:38.788Z,8.60
2023-04-16T06:02:41.405Z,8.35
2023-04-16T06:05:44.715Z,7.82
2023-04-16T06:08:47.081Z,8.17
2023-04-16T06:11:49.691Z,8.35
2023-04-16T06:14:52.093Z,8.15
2023-04-16T06:17:55.861Z,8.23
2023-04-16T06:21:00.979Z,8.07
2023-04-16T06:24:03.760Z,7.63
2023-04-16T06:27:06.162Z,7.50
2023-04-16T06:30:13.575Z,8.00
2023-04-16T06:33:16.329Z,7.22
2023-04-16T06:36:18.989Z,6.95
2023-04-16T06:39:21.916Z,7.60
2023-04-16T06:42:24.521Z,7.05
2023-04-16T06:45:26.915Z,6.78
2023-04-16T06:48:30.010Z,6.78
2023-04-16T06:51:32.679Z,7.62
2023-04-16T06:54:35.548Z,6.60
2023-04-16T06:57:37.896Z,6.47
2023-04-16T07:00:42.823Z,7.15
2023-04-16T07:03:45.675Z,6.53
2023-04-16T07:06:48.458Z,8.10
2023-04-16T07:09:50.952Z,6.20
2023-04-16T07:12:53.636Z,5.90
2023-04-16T07:15:56.002Z,5.90
2023-04-16T07:18:58.714Z,6.45
2023-04-16T07:22:01.340Z,6.53
2023-04-16T07:25:04.393Z,6.30
2023-04-16T07:28:06.682Z,6.95
2023-04-16T07:31:09.420Z,6.15
2023-04-16T07:34:12.124Z,7.28
2023-04-16T07:37:14.740Z,6.70
2023-04-16T07:40:17.191Z,6.53
2023-04-16T07:43:19.790Z,5.68
2023-04-16T07:46:22.157Z,5.43
2023-04-16T07:49:24.914Z,5.28
2023-04-16T07:52:27.224Z,5.45
2023-04-16T07:55:29.832Z,4.70
2023-04-16T07:58:32.183Z,5.60
2023-04-16T08:01:34.906Z,5.25
2023-04-16T08:04:37.842Z,4.50
2023-04-16T08:07:40.311Z,5.78
2023-04-16T08:10:42.916Z,4.90
2023-04-16T08:13:45.409Z,4.70
2023-04-16T08:16:48.019Z,4.62
2023-04-16T08:19:50.408Z,5.47
2023-04-16T08:22:54.897Z,4.60
2023-04-16T08:25:57.515Z,4.97
2023-04-16T08:29:00.352Z,5.90
2023-04-16T08:32:02.838Z,5.07
2023-04-16T08:35:06.035Z,4.82
2023-04-16T08:38:08.299Z,4.72
2023-04-16T08:41:13.455Z,5.60
2023-04-16T08:44:27.845Z,4.87
2023-04-16T08:47:34.461Z,4.97
2023-04-16T08:50:37.319Z,4.57
2023-04-16T08:53:51.989Z,4.78
2023-04-16T08:56:55.804Z,4.17
2023-04-16T08:59:59.663Z,3.83
2023-04-16T09:03:03.298Z,3.72
2023-04-16T09:06:07.545Z,4.05
2023-04-16T09:09:12.668Z,3.83
2023-04-16T09:12:15.737Z,4.00
2023-04-16T09:15:20.984Z,3.45
2023-04-16T09:18:24.480Z,4.00
2023-04-16T09:21:28.033Z,3.45
2023-04-16T09:24:31.617Z,3.80
2023-04-16T09:27:33.937Z,3.83
2023-04-16T09:30:37.604Z,3.83
2023-04-16T09:33:40.510Z,3.70
2023-04-16T09:36:43.079Z,3.90
2023-04-16T09:39:54.020Z,3.50
2023-04-16T09:43:00.702Z,3.73
2023-04-16T09:46:08.104Z,4.20
2023-04-16T09:49:15.529Z,3.90
2023-04-16T09:52:22.990Z,3.70
2023-04-16T09:55:27.771Z,3.83
2023-04-16T09:58:30.329Z,4.00
2023-04-16T10:01:33.036Z,3.60
2023-04-16T10:04:49.594Z,3.72
2023-04-16T10:07:52.758Z,3.83
2023-04-16T10:10:56.401Z,5.07
2023-04-16T10:13:58.827Z,4.57
2023-04-16T10:17:02.390Z,3.65
2023-04-16T10:20:07.227Z,4.18
2023-04-16T10:23:10.385Z,3.60
2023-04-16T10:26:13.658Z,3.97
2023-04-16T10:29:16.711Z,3.70
2023-04-16T10:32:21.940Z,3.25
2023-04-16T10:35:25.789Z,3.70
2023-04-16T10:38:28.525Z,3.22
2023-04-16T10:41:33.701Z,3.92
2023-04-16T10:44:36.585Z,3.73
2023-04-16T10:47:40.708Z,3.42
2023-04-16T10:50:43.203Z,3.42
2023-04-16T10:53:45.843Z,2.92
2023-04-16T10:56:48.141Z,3.83
2023-04-16T10:59:50.721Z,2.87
2023-04-16T11:02:54.397Z,3.17
2023-04-16T11:06:12.090Z,4.12
2023-04-16T11:09:49.825Z,3.28
2023-04-16T11:12:54.636Z,3.12
2023-04-16T11:15:58.402Z,3.07
2023-04-16T11:19:01.372Z,2.78
2023-04-16T11:22:04.284Z,2.90
2023-04-16T11:25:07.275Z,2.60
2023-04-16T11:28:09.586Z,2.70
2023-04-16T11:31:12.741Z,2.47
2023-04-16T11:34:16.811Z,2.70
2023-04-16T11:37:35.542Z,2.60
2023-04-16T11:40:37.959Z,2.70
2023-04-16T11:43:40.559Z,2.92
2023-04-16T11:46:42.975Z,3.77
2023-04-16T11:49:45.613Z,2.50
2023-04-16T11:52:49.128Z,2.40
2023-04-16T11:55:51.822Z,3.35
2023-04-16T11:59:16.615Z,2.40
2023-04-16T12:02:37.749Z,1.87
2023-04-16T12:05:40.838Z,2.30
2023-04-16T12:08:43.393Z,2.58
2023-04-16T12:11:46.561Z,2.10
2023-04-16T12:14:52.038Z,2.00
2023-04-16T12:18:08.169Z,2.10
2023-04-16T12:21:10.814Z,2.50
2023-04-16T12:24:15.466Z,2.40
2023-04-16T12:27:17.771Z,2.03
2023-04-16T12:30:22.874Z,2.30
2023-04-16T12:33:25.387Z,2.07
2023-04-16T12:36:28.110Z,2.10
2023-04-16T12:39:30.596Z,2.10
2023-04-16T12:42:37.376Z,2.00
2023-04-16T12:45:40.493Z,2.20
2023-04-16T12:48:43.669Z,2.17
2023-04-16T12:51:46.905Z,2.53
2023-04-16T12:54:49.601Z,2.12
2023-04-16T12:57:55.678Z,2.03
2023-04-16T13:00:58.751Z,2.00
2023-04-16T13:04:01.217Z,2.20
2023-04-16T13:07:04.004Z,1.95
2023-04-16T13:10:07.201Z,2.03
2023-04-16T13:13:09.876Z,2.12
2023-04-16T13:16:12.696Z,4.05
2023-04-16T13:19:15.984Z,2.00
2023-04-16T13:22:18.429Z,1.77
2023-04-16T13:25:21.131Z,2.03
2023-04-16T13:28:23.571Z,1.80
2023-04-16T13:31:26.707Z,2.20
2023-04-16T13:34:29.227Z,1.90
2023-04-16T13:37:31.831Z,1.67
2023-04-16T13:40:34.172Z,1.60
2023-04-16T13:43:37.335Z,1.77
2023-04-16T13:46:39.844Z,2.05
2023-04-16T13:49:42.696Z,2.10
2023-04-16T13:52:44.990Z,1.70
2023-04-16T13:55:49.518Z,1.90
2023-04-16T13:58:52.277Z,2.00
2023-04-16T14:01:55.101Z,2.00
2023-04-16T14:04:57.816Z,1.40
2023-04-16T14:08:00.391Z,2.17
2023-04-16T14:11:03.053Z,2.10
2023-04-16T14:14:05.486Z,2.80
2023-04-16T14:17:08.120Z,1.85
2023-04-16T14:20:12.608Z,1.90
2023-04-16T14:23:15.186Z,1.90
2023-04-16T14:26:17.577Z,2.33
2023-04-16T14:29:20.258Z,2.20
2023-04-16T14:32:23.298Z,2.30
2023-04-16T14:35:26.549Z,1.93
2023-04-16T14:38:28.971Z,2.15
2023-04-16T14:41:31.722Z,2.55
2023-04-16T14:44:34.132Z,2.08
2023-04-16T14:47:38.473Z,1.85
2023-04-16T14:50:43.946Z,1.77
2023-04-16T14:53:46.895Z,1.67
2023-04-16T14:56:50.032Z,1.85
2023-04-16T14:59:52.620Z,1.85
2023-04-16T15:02:55.681Z,1.80
2023-04-16T15:05:59.341Z,2.00
2023-04-16T15:09:01.962Z,2.10
2023-04-16T15:12:04.758Z,2.30
2023-04-16T15:15:08.141Z,1.83
2023-04-16T15:18:10.952Z,2.33
2023-04-16T15:21:13.618Z,1.83
2023-04-16T15:24:16.254Z,1.70
2023-04-16T15:27:19.433Z,2.17
2023-04-16T15:30:22.072Z,1.62
2023-04-16T15:33:24.892Z,1.98
2023-04-16T15:36:27.541Z,1.80
2023-04-16T15:39:31.573Z,2.10
2023-04-16T15:42:34.775Z,2.60
2023-04-16T15:45:37.562Z,1.95
2023-04-16T15:48:40.232Z,1.90
2023-04-16T15:51:42.610Z,2.77
2023-04-16T15:54:45.839Z,1.67
2023-04-16T15:57:48.259Z,1.70
2023-04-16T16:00:50.895Z,1.70
2023-04-16T16:03:53.912Z,1.70
2023-04-16T16:06:56.685Z,1.80
2023-04-16T16:09:59.593Z,1.48
2023-04-16T16:13:07.354Z,1.60
2023-04-16T16:16:10.006Z,1.33
2023-04-16T16:19:12.587Z,1.75
2023-04-16T16:22:16.024Z,1.63
2023-04-16T16:25:18.819Z,2.53
2023-04-16T16:28:21.590Z,2.92
2023-04-16T16:31:24.537Z,1.95
2023-04-16T16:34:28.207Z,2.00
2023-04-16T16:37:30.527Z,1.77
2023-04-16T16:40:33.310Z,1.70
2023-04-16T16:43:36.776Z,2.00
2023-04-16T16:46:39.538Z,2.37
2023-04-16T16:49:41.926Z,1.90
2023-04-16T16:52:44.832Z,2.40
2023-04-16T16:55:47.236Z,2.10
2023-04-16T16:58:49.894Z,2.35
2023-04-16T17:01:52.295Z,2.25
2023-04-16T17:04:55.045Z,2.25
2023-04-16T17:07:57.431Z,1.90
2023-04-16T17:11:03.556Z,2.25
2023-04-16T17:14:06.027Z,2.50
2023-04-16T17:17:08.908Z,2.85
2023-04-16T17:20:12.567Z,2.92
2023-04-16T17:23:15.639Z,2.53
2023-04-16T17:26:17.957Z,2.33
2023-04-16T17:29:25.804Z,2.25
2023-04-16T17:32:29.686Z,2.22
2023-04-16T17:35:32.406Z,1.95
2023-04-16T17:38:34.799Z,2.27
2023-04-16T17:41:37.452Z,1.85
2023-04-16T17:44:39.771Z,1.83
2023-04-16T17:47:42.494Z,1.67
2023-04-16T17:50:44.824Z,1.80
2023-04-16T17:53:47.626Z,2.00
2023-04-16T17:56:49.933Z,2.28
2023-04-16T17:59:52.768Z,2.08
2023-04-16T18:02:56.752Z,1.95
2023-04-16T18:05:59.984Z,2.20
2023-04-16T18:09:04.816Z,1.83
2023-04-16T18:12:08.044Z,2.42
2023-04-16T18:15:10.740Z,1.80
2023-04-16T18:18:13.501Z,2.55
2023-04-16T18:21:15.836Z,2.50
2023-04-16T18:24:18.416Z,2.67
2023-04-16T18:27:21.597Z,2.70
2023-04-16T18:30:26.634Z,2.60
2023-04-16T18:33:49.991Z,2.50
2023-04-16T18:36:52.277Z,2.58
2023-04-16T18:39:57.784Z,2.70
2023-04-16T18:43:00.697Z,2.60
2023-04-16T18:46:03.094Z,2.20
2023-04-16T18:49:05.969Z,2.20
2023-04-16T18:52:08.768Z,2.47
2023-04-16T18:55:11.362Z,2.73
2023-04-16T18:58:13.742Z,1.90
2023-04-16T19:01:16.535Z,2.30
2023-04-16T19:04:19.522Z,2.92
2023-04-16T19:07:22.264Z,2.47
2023-04-16T19:10:24.636Z,2.10
2023-04-16T19:13:27.399Z,2.50
2023-04-16T19:16:29.814Z,2.47
2023-04-16T19:19:32.469Z,2.40
2023-04-16T19:22:34.778Z,2.97
2023-04-16T19:25:37.479Z,2.60
2023-04-16T19:28:40.007Z,1.92
2023-04-16T19:31:42.713Z,2.55
2023-04-16T19:34:45.106Z,2.53
2023-04-16T19:37:50.523Z,3.05
2023-04-16T19:40:52.981Z,2.60
2023-04-16T19:43:55.691Z,2.70
2023-04-16T19:46:58.925Z,4.82
2023-04-16T19:50:07.899Z,2.80
2023-04-16T19:53:11.332Z,2.10
2023-04-16T19:56:15.908Z,2.90
2023-04-16T19:59:18.371Z,2.20
2023-04-16T20:02:21.072Z,2.55
2023-04-16T20:05:26.424Z,2.50
2023-04-16T20:08:28.744Z,2.45
2023-04-16T20:11:31.418Z,2.20
2023-04-16T20:14:33.725Z,2.10
2023-04-16T20:17:36.373Z,2.40
2023-04-16T20:20:38.736Z,2.15
2023-04-16T20:23:41.426Z,2.22
2023-04-16T20:26:43.769Z,2.10
2023-04-16T20:29:46.469Z,2.30
2023-04-16T20:32:48.956Z,2.45
2023-04-16T20:35:52.274Z,1.92
2023-04-16T20:38:54.708Z,2.20
2023-04-16T20:41:57.321Z,2.07
2023-04-16T20:45:00.710Z,2.00
2023-04-16T20:48:03.845Z,2.30
2023-04-16T20:51:10.306Z,1.83
2023-04-16T20:54:13.100Z,2.03
2023-04-16T20:57:15.588Z,2.30
2023-04-16T21:00:18.413Z,2.03
2023-04-16T21:03:21.577Z,2.33
2023-04-16T21:06:24.319Z,1.92
2023-04-16T21:09:27.124Z,2.30
2023-04-16T21:12:29.840Z,2.37
2023-04-16T21:15:32.774Z,2.00
2023-04-16T21:18:36.891Z,1.77
2023-04-16T21:21:39.632Z,2.00
2023-04-16T21:24:42.265Z,2.35
2023-04-16T21:27:44.641Z,1.87
2023-04-16T21:30:51.770Z,1.92
2023-04-16T21:33:54.116Z,2.00
2023-04-16T21:36:56.679Z,2.30
2023-04-16T21:39:59.120Z,2.40
2023-04-16T21:43:01.714Z,1.97
2023-04-16T21:46:04.107Z,1.90
2023-04-16T21:49:06.778Z,2.08
2023-04-16T21:52:14.185Z,2.00
2023-04-16T21:55:16.951Z,2.00
2023-04-16T21:58:19.298Z,1.90
2023-04-16T22:01:22.132Z,1.75
2023-04-16T22:04:26.470Z,1.62
2023-04-16T22:07:28.969Z,2.00
2023-04-16T22:10:31.567Z,2.12
2023-04-16T22:13:33.892Z,2.10
2023-04-16T22:16:36.675Z,2.00
2023-04-16T22:19:39.463Z,1.90
2023-04-16T22:22:42.603Z,1.98
2023-04-16T22:25:45.076Z,1.73
2023-04-16T22:28:47.673Z,1.63
2023-04-16T22:31:50.148Z,2.08
2023-04-16T22:34:52.775Z,1.85
2023-04-16T22:37:55.127Z,1.90
2023-04-16T22:40:57.751Z,1.90
2023-04-16T22:44:00.133Z,1.90
2023-04-16T22:47:02.860Z,1.70
2023-04-16T22:50:06.327Z,2.00
2023-04-16T22:53:08.964Z,1.90
2023-04-16T22:56:11.884Z,1.90
2023-04-16T22:59:14.540Z,1.90
2023-04-16T23:02:17.378Z,1.85
2023-04-16T23:05:20.290Z,2.00
2023-04-16T23:08:22.676Z,1.52
2023-04-16T23:11:25.436Z,1.80
2023-04-16T23:14:27.774Z,2.00
2023-04-16T23:17:30.408Z,1.87
2023-04-16T23:20:32.726Z,2.30
2023-04-16T23:23:35.321Z,2.03
2023-04-16T23:26:37.605Z,1.70
2023-04-16T23:29:40.203Z,1.80
2023-04-16T23:32:42.500Z,2.00
2023-04-16T23:35:46.692Z,1.60
2023-04-16T23:38:48.956Z,1.83
2023-04-16T23:41:51.538Z,2.17
2023-04-16T23:44:53.853Z,1.70
2023-04-16T23:47:56.501Z,1.80
2023-04-16T23:50:59.261Z,1.70
2023-04-16T23:54:02.000Z,2.03
2023-04-16T23:57:04.445Z,1.85
